createdAt,value
2022-08-19T00:02:11.656Z,7.40
2022-08-19T00:07:14.377Z,8.50
2022-08-19T00:12:17.586Z,8.18
2022-08-19T00:17:20.348Z,8.27
2022-08-19T00:22:23.266Z,9.00
2022-08-19T00:27:26.911Z,8.50
2022-08-19T00:32:30.422Z,7.70
2022-08-19T00:37:34.303Z,8.70
2022-08-19T00:42:37.119Z,8.45
2022-08-19T00:47:39.932Z,7.78
2022-08-19T00:52:46.244Z,8.75
2022-08-19T00:58:06.003Z,8.07
2022-08-19T01:03:13.196Z,8.43
2022-08-19T01:08:17.145Z,8.65
2022-08-19T01:13:27.933Z,9.25
2022-08-19T01:18:31.804Z,8.55
2022-08-19T01:23:46.437Z,8.65
2022-08-19T01:28:51.896Z,8.77
2022-08-19T01:33:56.638Z,9.27
2022-08-19T01:39:00.460Z,9.32
2022-08-19T01:44:18.081Z,9.73
2022-08-19T01:49:23.889Z,9.18
2022-08-19T01:54:27.403Z,8.77
2022-08-19T01:59:31.292Z,9.93
2022-08-19T02:04:34.992Z,9.93
2022-08-19T02:09:37.884Z,9.63
2022-08-19T02:14:40.604Z,9.88
2022-08-19T02:19:43.293Z,8.77
2022-08-19T02:24:45.975Z,10.13
2022-08-19T02:29:50.323Z,10.43
2022-08-19T02:34:53.070Z,9.88
2022-08-19T02:39:55.847Z,10.20
2022-08-19T02:44:58.699Z,10.45
2022-08-19T02:50:03.422Z,10.10
2022-08-19T02:55:07.113Z,10.25
2022-08-19T03:00:13.601Z,9.75
2022-08-19T03:05:16.397Z,10.20
2022-08-19T03:10:19.409Z,10.20
2022-08-19T03:15:22.199Z,10.20
2022-08-19T03:20:26.094Z,10.70
2022-08-19T03:25:29.032Z,10.27
2022-08-19T03:30:31.756Z,10.13
2022-08-19T03:35:39.700Z,10.02
2022-08-19T03:40:43.766Z,10.40
2022-08-19T03:45:46.495Z,10.82
2022-08-19T03:50:49.169Z,11.10
2022-08-19T03:55:51.866Z,10.68
2022-08-19T04:00:55.345Z,10.27
2022-08-19T04:05:58.183Z,10.75
2022-08-19T04:11:00.925Z,10.18
2022-08-19T04:16:05.195Z,10.90
2022-08-19T04:21:08.769Z,10.10
2022-08-19T04:26:16.731Z,11.30
2022-08-19T04:31:28.523Z,9.82
2022-08-19T04:36:34.507Z,9.88
2022-08-19T04:41:56.760Z,9.75
2022-08-19T04:46:59.882Z,10.30
2022-08-19T04:52:04.493Z,10.38
2022-08-19T04:57:10.732Z,10.10
2022-08-19T05:02:13.784Z,10.20
2022-08-19T05:07:16.482Z,9.93
2022-08-19T05:12:20.133Z,9.95
2022-08-19T05:17:33.503Z,10.70
2022-08-19T05:22:39.302Z,10.30
2022-08-19T05:27:43.438Z,10.18
2022-08-19T05:32:46.178Z,10.18
2022-08-19T05:37:48.959Z,9.98
2022-08-19T05:42:57.736Z,8.98
2022-08-19T05:48:01.562Z,8.32
2022-08-19T05:53:04.551Z,8.82
2022-08-19T05:58:08.653Z,9.07
2022-08-19T06:03:12.888Z,8.43
2022-08-19T06:08:16.401Z,8.00
2022-08-19T06:13:20.441Z,7.40
2022-08-19T06:18:23.526Z,8.18
2022-08-19T06:23:26.832Z,7.30
2022-08-19T06:28:29.620Z,8.75
2022-08-19T06:33:32.346Z,8.27
2022-08-19T06:38:35.171Z,8.55
2022-08-19T06:43:42.207Z,8.32
2022-08-19T06:48:45.897Z,7.22
2022-08-19T06:58:57.967Z,7.03
2022-08-19T07:04:03.362Z,5.90
2022-08-19T07:09:10.023Z,5.32
2022-08-19T07:14:16.667Z,6.30
2022-08-19T07:19:23.899Z,4.75
2022-08-19T07:24:28.275Z,6.50
2022-08-19T07:29:37.371Z,5.28
2022-08-19T07:34:40.813Z,6.07
2022-08-19T07:39:45.891Z,4.82
2022-08-19T07:44:50.510Z,5.03
2022-08-19T07:49:53.664Z,4.85
2022-08-19T07:54:56.449Z,4.53
2022-08-19T07:59:59.685Z,6.43
2022-08-19T08:05:21.123Z,5.07
2022-08-19T08:10:24.449Z,5.32
2022-08-19T08:15:27.354Z,7.90
2022-08-19T08:20:32.522Z,5.43
2022-08-19T08:25:36.552Z,4.20
2022-08-19T08:30:45.194Z,4.63
2022-08-19T08:35:48.419Z,3.90
2022-08-19T08:41:04.618Z,5.35
2022-08-19T08:46:31.689Z,3.78
2022-08-19T08:56:45.362Z,4.13
2022-08-19T09:01:48.988Z,4.07
2022-08-19T09:07:00.662Z,4.07
2022-08-19T09:12:14.945Z,5.03
2022-08-19T09:17:18.019Z,4.07
2022-08-19T09:22:25.425Z,4.40
2022-08-19T09:27:42.295Z,4.72
2022-08-19T09:32:47.366Z,4.40
2022-08-19T09:37:59.722Z,5.03
2022-08-19T09:43:09.914Z,5.07
2022-08-19T09:48:19.077Z,4.93
2022-08-19T09:53:26.555Z,5.03
2022-08-19T09:58:31.080Z,5.10
2022-08-19T10:03:35.923Z,5.50
2022-08-19T10:08:40.775Z,5.55
2022-08-19T10:13:53.243Z,4.72
2022-08-19T10:18:59.046Z,4.57
2022-08-19T10:24:05.088Z,4.40
2022-08-19T10:29:09.355Z,4.13
2022-08-19T10:34:26.676Z,4.70
2022-08-19T10:39:31.986Z,4.72
2022-08-19T10:44:36.517Z,5.00
2022-08-19T10:49:59.226Z,4.82
2022-08-19T10:55:24.916Z,4.63
2022-08-19T11:00:32.524Z,4.50
2022-08-19T11:05:40.091Z,4.07
2022-08-19T11:10:43.941Z,3.72
2022-08-19T11:16:00.886Z,4.25
2022-08-19T11:21:15.006Z,5.20
2022-08-19T11:26:18.973Z,4.40
2022-08-19T11:31:24.448Z,4.75
2022-08-19T11:36:33.577Z,4.25
2022-08-19T11:41:36.284Z,4.63
2022-08-19T11:46:39.571Z,4.50
2022-08-19T11:51:44.176Z,3.90
2022-08-19T11:56:48.773Z,4.00
2022-08-19T12:01:51.464Z,4.15
2022-08-19T12:06:54.191Z,4.32
2022-08-19T12:11:57.238Z,4.47
2022-08-19T12:17:03.583Z,4.13
2022-08-19T12:22:07.112Z,3.88
2022-08-19T12:27:12.534Z,3.65
2022-08-19T12:32:16.603Z,4.10
2022-08-19T12:37:19.287Z,4.18
2022-08-19T12:42:23.635Z,3.92
2022-08-19T12:47:27.557Z,4.32
2022-08-19T12:52:30.388Z,3.78
2022-08-19T12:57:35.580Z,3.72
2022-08-19T13:02:39.692Z,3.67
2022-08-19T13:07:44.814Z,4.05
2022-08-19T13:12:49.914Z,3.15
2022-08-19T13:17:54.841Z,3.80
2022-08-19T13:22:58.327Z,3.42
2022-08-19T13:28:01.602Z,3.50
2022-08-19T13:33:16.817Z,3.83
2022-08-19T13:38:22.055Z,3.33
2022-08-19T13:43:27.604Z,3.28
2022-08-19T13:48:32.101Z,3.30
2022-08-19T13:53:34.907Z,3.97
2022-08-19T13:58:38.178Z,3.70
2022-08-19T14:03:40.900Z,3.47
2022-08-19T14:08:46.271Z,3.22
2022-08-19T14:13:49.560Z,3.92
2022-08-19T14:18:52.601Z,4.47
2022-08-19T14:23:55.587Z,3.53
2022-08-19T14:28:58.834Z,3.67
2022-08-19T14:34:01.780Z,3.58
2022-08-19T14:39:05.109Z,3.78
2022-08-19T14:44:07.781Z,3.33
2022-08-19T14:49:10.470Z,3.40
2022-08-19T14:54:14.019Z,3.85
2022-08-19T14:59:16.854Z,3.33
2022-08-19T15:04:19.888Z,3.63
2022-08-19T15:09:22.597Z,3.50
2022-08-19T15:14:25.409Z,3.90
2022-08-19T15:19:28.815Z,3.70
2022-08-19T15:24:31.597Z,3.78
2022-08-19T15:29:34.420Z,3.72
2022-08-19T15:34:37.315Z,4.03
2022-08-19T15:39:40.081Z,4.20
2022-08-19T15:44:42.794Z,4.00
2022-08-19T15:49:45.531Z,4.00
2022-08-19T15:54:48.291Z,3.58
2022-08-19T16:00:09.600Z,4.53
2022-08-19T16:05:38.563Z,5.22
2022-08-19T16:10:41.354Z,5.32
2022-08-19T16:15:45.006Z,5.38
2022-08-19T16:20:48.572Z,4.88
2022-08-19T16:25:51.342Z,6.10
2022-08-19T16:30:54.485Z,8.88
2022-08-19T16:36:00.262Z,33.78
2022-08-19T16:41:10.006Z,33.67
2022-08-19T16:46:13.175Z,24.70
2022-08-19T16:51:22.887Z,20.55
2022-08-19T16:56:26.008Z,19.50
2022-08-19T17:01:29.556Z,17.40
2022-08-19T17:06:32.700Z,12.38
2022-08-19T17:11:36.051Z,8.88
2022-08-19T17:16:39.190Z,8.50
2022-08-19T17:21:42.067Z,7.43
2022-08-19T17:26:44.801Z,6.65
2022-08-19T17:31:47.524Z,7.85
2022-08-19T17:36:50.185Z,8.07
2022-08-19T17:41:53.383Z,7.28
2022-08-19T17:46:56.379Z,5.70
2022-08-19T17:51:59.673Z,4.97
2022-08-19T17:57:02.423Z,5.57
2022-08-19T18:02:06.628Z,4.47
2022-08-19T18:07:09.951Z,5.88
2022-08-19T18:12:15.715Z,5.57
2022-08-19T18:17:19.583Z,6.30
2022-08-19T18:22:25.255Z,5.20
2022-08-19T18:27:28.309Z,4.43
2022-08-19T18:32:34.919Z,4.60
2022-08-19T18:37:41.620Z,4.60
2022-08-19T18:43:04.461Z,5.05
2022-08-19T18:48:27.475Z,5.38
2022-08-19T18:53:34.395Z,4.68
2022-08-19T18:58:38.208Z,4.85
2022-08-19T19:03:52.943Z,5.13
2022-08-19T19:08:55.730Z,4.57
2022-08-19T19:13:59.566Z,4.72
2022-08-19T19:19:02.955Z,4.60
2022-08-19T19:24:05.741Z,4.68
2022-08-19T19:29:08.560Z,4.50
2022-08-19T19:34:29.635Z,5.38
2022-08-19T19:39:46.580Z,4.97
2022-08-19T19:44:51.812Z,5.63
2022-08-19T19:55:18.723Z,5.28
2022-08-19T20:00:22.409Z,4.85
2022-08-19T20:05:25.257Z,5.93
2022-08-19T20:10:28.001Z,5.28
2022-08-19T20:15:32.233Z,5.40
2022-08-19T20:20:35.482Z,6.60
2022-08-19T20:25:38.978Z,6.70
2022-08-19T20:30:46.622Z,7.15
2022-08-19T20:35:50.738Z,7.15
2022-08-19T20:40:53.477Z,7.53
2022-08-19T20:45:56.213Z,9.20
2022-08-19T20:50:59.253Z,10.20
2022-08-19T20:56:02.001Z,9.27
2022-08-19T21:01:06.927Z,9.05
2022-08-19T21:06:14.213Z,9.68
2022-08-19T21:11:16.919Z,8.73
2022-08-19T21:16:23.643Z,9.88
2022-08-19T21:21:26.512Z,10.23
2022-08-19T21:26:29.241Z,9.95
2022-08-19T21:31:32.273Z,10.13
2022-08-19T21:36:35.033Z,9.82
2022-08-19T21:41:40.679Z,9.80
2022-08-19T21:46:46.203Z,9.85
2022-08-19T21:51:53.488Z,10.32
2022-08-19T21:56:56.181Z,8.82
2022-08-19T22:02:15.577Z,8.68
2022-08-19T22:07:22.590Z,8.15
2022-08-19T22:12:28.799Z,7.80
2022-08-19T22:17:33.321Z,8.38
2022-08-19T22:22:36.541Z,7.45
2022-08-19T22:27:39.312Z,7.72
2022-08-19T22:32:49.522Z,8.07
2022-08-19T22:37:59.642Z,7.82
2022-08-19T22:43:08.406Z,7.35
2022-08-19T22:48:12.885Z,8.40
2022-08-19T22:53:16.706Z,7.45
2022-08-19T22:58:28.088Z,7.85
2022-08-19T23:03:31.502Z,8.35
2022-08-19T23:08:34.501Z,8.45
2022-08-19T23:13:39.605Z,9.27
2022-08-19T23:18:42.311Z,9.00
2022-08-19T23:23:45.059Z,8.80
2022-08-19T23:29:06.175Z,8.95
2022-08-19T23:34:08.936Z,9.65
2022-08-19T23:39:11.787Z,9.25
2022-08-19T23:44:15.108Z,10.32
2022-08-19T23:49:18.321Z,9.18
2022-08-19T23:54:21.111Z,9.48
2022-08-19T23:59:23.838Z,10.82
